sensor_id;sensor_type;location;lat;lon;timestamp;temperature;humidity
7014;DHT22;3547;50.774;12.918;2022-07-23T00:01:24;18.00;97.10
7014;DHT22;3547;50.774;12.918;2022-07-23T00:03:53;17.90;99.90
7014;DHT22;3547;50.774;12.918;2022-07-23T00:06:21;17.80;1.00
7014;DHT22;3547;50.774;12.918;2022-07-23T00:08:53;17.80;1.00
7014;DHT22;3547;50.774;12.918;2022-07-23T00:11:19;17.80;99.90
7014;DHT22;3547;50.774;12.918;2022-07-23T00:13:48;17.80;99.90
7014;DHT22;3547;50.774;12.918;2022-07-23T00:16:17;17.90;46.50
7014;DHT22;3547;50.774;12.918;2022-07-23T00:18:44;17.90;40.20
7014;DHT22;3547;50.774;12.918;2022-07-23T00:21:11;17.90;1.00
7014;DHT22;3547;50.774;12.918;2022-07-23T00:23:37;17.80;76.00
7014;DHT22;3547;50.774;12.918;2022-07-23T00:26:04;17.90;99.90
7014;DHT22;3547;50.774;12.918;2022-07-23T00:28:34;17.80;99.90
7014;DHT22;3547;50.774;12.918;2022-07-23T00:31:01;17.80;99.90
7014;DHT22;3547;50.774;12.918;2022-07-23T00:33:35;17.70;1.00
7014;DHT22;3547;50.774;12.918;2022-07-23T00:36:01;17.70;1.00
7014;DHT22;3547;50.774;12.918;2022-07-23T00:38:28;17.70;51.30
7014;DHT22;3547;50.774;12.918;2022-07-23T00:40:57;17.60;1.00
7014;DHT22;3547;50.774;12.918;2022-07-23T00:43:23;17.60;11.40
7014;DHT22;3547;50.774;12.918;2022-07-23T00:45:51;17.50;39.80
7014;DHT22;3547;50.774;12.918;2022-07-23T00:48:20;17.50;1.00
7014;DHT22;3547;50.774;12.918;2022-07-23T00:50:52;17.60;4.30
7014;DHT22;3547;50.774;12.918;2022-07-23T00:53:19;17.70;1.00
7014;DHT22;3547;50.774;12.918;2022-07-23T00:55:47;17.60;99.90
7014;DHT22;3547;50.774;12.918;2022-07-23T00:58:16;17.50;28.30
7014;DHT22;3547;50.774;12.918;2022-07-23T01:00:43;17.60;1.00
7014;DHT22;3547;50.774;12.918;2022-07-23T01:03:12;17.60;1.00
7014;DHT22;3547;50.774;12.918;2022-07-23T01:05:38;17.60;99.90
7014;DHT22;3547;50.774;12.918;2022-07-23T01:11:29;17.70;99.90
7014;DHT22;3547;50.774;12.918;2022-07-23T01:13:56;17.80;99.90
7014;DHT22;3547;50.774;12.918;2022-07-23T01:16:22;17.80;99.90
7014;DHT22;3547;50.774;12.918;2022-07-23T01:18:49;17.70;1.00
7014;DHT22;3547;50.774;12.918;2022-07-23T01:21:18;17.60;1.00
7014;DHT22;3547;50.774;12.918;2022-07-23T01:23:50;17.60;1.00
7014;DHT22;3547;50.774;12.918;2022-07-23T01:26:19;17.60;22.30
7014;DHT22;3547;50.774;12.918;2022-07-23T01:28:48;17.60;99.90
7014;DHT22;3547;50.774;12.918;2022-07-23T01:31:15;17.60;99.90
7014;DHT22;3547;50.774;12.918;2022-07-23T01:33:43;17.60;17.50
7014;DHT22;3547;50.774;12.918;2022-07-23T01:36:10;17.60;4.70
7014;DHT22;3547;50.774;12.918;2022-07-23T01:38:37;17.60;1.00
7014;DHT22;3547;50.774;12.918;2022-07-23T01:41:08;17.60;60.50
7014;DHT22;3547;50.774;12.918;2022-07-23T01:43:35;17.50;99.90
7014;DHT22;3547;50.774;12.918;2022-07-23T01:46:02;17.60;1.00
7014;DHT22;3547;50.774;12.918;2022-07-23T01:48:28;17.60;1.00
7014;DHT22;3547;50.774;12.918;2022-07-23T01:50:55;17.50;99.90
7014;DHT22;3547;50.774;12.918;2022-07-23T01:53:22;17.50;1.00
7014;DHT22;3547;50.774;12.918;2022-07-23T01:55:49;17.40;1.00
7014;DHT22;3547;50.774;12.918;2022-07-23T01:58:15;17.40;7.10
7014;DHT22;3547;50.774;12.918;2022-07-23T02:00:42;17.40;1.00
7014;DHT22;3547;50.774;12.918;2022-07-23T02:03:10;17.40;99.90
7014;DHT22;3547;50.774;12.918;2022-07-23T02:05:40;17.30;1.00
7014;DHT22;3547;50.774;12.918;2022-07-23T02:08:09;17.40;5.80
7014;DHT22;3547;50.774;12.918;2022-07-23T02:10:36;17.30;5.40
7014;DHT22;3547;50.774;12.918;2022-07-23T02:13:02;17.40;99.90
7014;DHT22;3547;50.774;12.918;2022-07-23T02:15:29;17.40;1.00
7014;DHT22;3547;50.774;12.918;2022-07-23T02:17:55;17.40;1.00
7014;DHT22;3547;50.774;12.918;2022-07-23T02:20:22;17.30;99.90
7014;DHT22;3547;50.774;12.918;2022-07-23T02:22:49;17.30;1.00
7014;DHT22;3547;50.774;12.918;2022-07-23T02:25:16;17.30;1.00
7014;DHT22;3547;50.774;12.918;2022-07-23T02:27:46;17.20;1.00
7014;DHT22;3547;50.774;12.918;2022-07-23T02:30:12;17.20;38.90
7014;DHT22;3547;50.774;12.918;2022-07-23T02:32:42;17.20;99.90
7014;DHT22;3547;50.774;12.918;2022-07-23T02:35:09;17.30;1.00
7014;DHT22;3547;50.774;12.918;2022-07-23T02:37:41;17.30;11.10
7014;DHT22;3547;50.774;12.918;2022-07-23T02:40:08;17.30;1.00
7014;DHT22;3547;50.774;12.918;2022-07-23T02:42:34;17.30;1.00
7014;DHT22;3547;50.774;12.918;2022-07-23T02:45:01;17.20;99.90
7014;DHT22;3547;50.774;12.918;2022-07-23T02:47:27;17.20;99.90
7014;DHT22;3547;50.774;12.918;2022-07-23T02:49:54;17.20;1.00
7014;DHT22;3547;50.774;12.918;2022-07-23T02:52:21;17.10;92.70
7014;DHT22;3547;50.774;12.918;2022-07-23T02:54:47;17.20;1.00
7014;DHT22;3547;50.774;12.918;2022-07-23T02:57:14;17.10;99.90
7014;DHT22;3547;50.774;12.918;2022-07-23T02:59:40;17.00;99.90
7014;DHT22;3547;50.774;12.918;2022-07-23T03:02:10;17.00;99.90
7014;DHT22;3547;50.774;12.918;2022-07-23T03:04:43;17.10;1.00
7014;DHT22;3547;50.774;12.918;2022-07-23T03:07:10;17.00;1.00
7014;DHT22;3547;50.774;12.918;2022-07-23T03:09:36;17.00;85.10
7014;DHT22;3547;50.774;12.918;2022-07-23T03:12:03;17.10;99.90
7014;DHT22;3547;50.774;12.918;2022-07-23T03:14:29;17.10;55.00
7014;DHT22;3547;50.774;12.918;2022-07-23T03:20:18;16.90;1.00
7014;DHT22;3547;50.774;12.918;2022-07-23T03:22:44;16.90;1.00
7014;DHT22;3547;50.774;12.918;2022-07-23T03:25:14;17.00;1.00
7014;DHT22;3547;50.774;12.918;2022-07-23T03:27:42;16.90;12.80
7014;DHT22;3547;50.774;12.918;2022-07-23T03:30:11;16.90;1.00
7014;DHT22;3547;50.774;12.918;2022-07-23T03:32:37;16.90;41.80
7014;DHT22;3547;50.774;12.918;2022-07-23T03:35:09;17.00;99.90
7014;DHT22;3547;50.774;12.918;2022-07-23T03:37:36;17.10;22.30
7014;DHT22;3547;50.774;12.918;2022-07-23T03:40:02;17.10;1.00
7014;DHT22;3547;50.774;12.918;2022-07-23T03:42:41;17.00;1.00
7014;DHT22;3547;50.774;12.918;2022-07-23T03:45:08;16.80;1.00
7014;DHT22;3547;50.774;12.918;2022-07-23T03:47:35;16.70;1.00
7014;DHT22;3547;50.774;12.918;2022-07-23T03:50:02;16.70;1.00
7014;DHT22;3547;50.774;12.918;2022-07-23T03:52:29;16.80;99.90
7014;DHT22;3547;50.774;12.918;2022-07-23T03:54:55;16.80;53.10
7014;DHT22;3547;50.774;12.918;2022-07-23T03:57:24;16.90;87.90
7014;DHT22;3547;50.774;12.918;2022-07-23T03:59:50;17.00;1.00
7014;DHT22;3547;50.774;12.918;2022-07-23T04:02:17;17.00;1.00
7014;DHT22;3547;50.774;12.918;2022-07-23T04:04:43;17.00;1.00
7014;DHT22;3547;50.774;12.918;2022-07-23T04:07:10;17.10;1.00
7014;DHT22;3547;50.774;12.918;2022-07-23T04:09:36;17.10;99.90
7014;DHT22;3547;50.774;12.918;2022-07-23T04:12:05;17.10;99.90
7014;DHT22;3547;50.774;12.918;2022-07-23T04:14:32;17.00;1.00
7014;DHT22;3547;50.774;12.918;2022-07-23T04:17:01;17.10;1.00
7014;DHT22;3547;50.774;12.918;2022-07-23T04:19:27;17.20;1.00
7014;DHT22;3547;50.774;12.918;2022-07-23T04:21:57;17.20;1.00
7014;DHT22;3547;50.774;12.918;2022-07-23T04:24:27;17.20;46.80
7014;DHT22;3547;50.774;12.918;2022-07-23T04:26:56;17.30;1.00
7014;DHT22;3547;50.774;12.918;2022-07-23T04:29:26;17.30;1.00
7014;DHT22;3547;50.774;12.918;2022-07-23T04:31:55;17.30;1.00
7014;DHT22;3547;50.774;12.918;2022-07-23T04:34:21;17.30;99.90
7014;DHT22;3547;50.774;12.918;2022-07-23T04:36:47;17.30;1.00
7014;DHT22;3547;50.774;12.918;2022-07-23T04:39:16;17.30;1.00
7014;DHT22;3547;50.774;12.918;2022-07-23T04:41:43;17.30;99.90
7014;DHT22;3547;50.774;12.918;2022-07-23T04:44:13;17.20;99.90
7014;DHT22;3547;50.774;12.918;2022-07-23T04:46:40;17.20;1.00
7014;DHT22;3547;50.774;12.918;2022-07-23T04:49:13;17.30;72.70
7014;DHT22;3547;50.774;12.918;2022-07-23T04:51:42;17.40;1.00
7014;DHT22;3547;50.774;12.918;2022-07-23T04:54:08;17.40;1.00
7014;DHT22;3547;50.774;12.918;2022-07-23T04:56:35;17.30;17.70
7014;DHT22;3547;50.774;12.918;2022-07-23T04:59:02;17.10;99.90
7014;DHT22;3547;50.774;12.918;2022-07-23T05:01:28;17.10;1.00
7014;DHT22;3547;50.774;12.918;2022-07-23T05:03:56;17.10;54.10
7014;DHT22;3547;50.774;12.918;2022-07-23T05:06:29;17.10;99.90
7014;DHT22;3547;50.774;12.918;2022-07-23T05:08:58;17.00;1.00
7014;DHT22;3547;50.774;12.918;2022-07-23T05:11:24;17.10;1.00
7014;DHT22;3547;50.774;12.918;2022-07-23T05:13:50;17.00;99.90
7014;DHT22;3547;50.774;12.918;2022-07-23T05:16:17;17.00;33.30
7014;DHT22;3547;50.774;12.918;2022-07-23T05:18:43;17.10;1.00
7014;DHT22;3547;50.774;12.918;2022-07-23T05:21:15;17.00;1.00
7014;DHT22;3547;50.774;12.918;2022-07-23T05:23:44;17.00;1.00
7014;DHT22;3547;50.774;12.918;2022-07-23T05:26:12;16.90;1.00
7014;DHT22;3547;50.774;12.918;2022-07-23T05:28:41;17.10;77.30
7014;DHT22;3547;50.774;12.918;2022-07-23T05:31:07;17.30;97.10
7014;DHT22;3547;50.774;12.918;2022-07-23T05:33:33;17.20;1.00
7014;DHT22;3547;50.774;12.918;2022-07-23T05:36:01;17.00;1.00
7014;DHT22;3547;50.774;12.918;2022-07-23T05:38:29;17.10;98.30
7014;DHT22;3547;50.774;12.918;2022-07-23T05:40:55;17.20;1.00
7014;DHT22;3547;50.774;12.918;2022-07-23T05:43:22;17.20;15.60
7014;DHT22;3547;50.774;12.918;2022-07-23T05:45:48;17.20;1.00
7014;DHT22;3547;50.774;12.918;2022-07-23T05:48:14;17.00;28.20
7014;DHT22;3547;50.774;12.918;2022-07-23T05:50:41;17.00;1.00
7014;DHT22;3547;50.774;12.918;2022-07-23T05:53:09;17.10;5.00
7014;DHT22;3547;50.774;12.918;2022-07-23T05:55:36;17.20;99.90
7014;DHT22;3547;50.774;12.918;2022-07-23T05:58:11;17.40;1.00
7014;DHT22;3547;50.774;12.918;2022-07-23T06:00:37;17.50;99.90
7014;DHT22;3547;50.774;12.918;2022-07-23T06:03:16;17.70;99.90
7014;DHT22;3547;50.774;12.918;2022-07-23T06:05:50;17.70;1.00
7014;DHT22;3547;50.774;12.918;2022-07-23T06:11:06;17.50;65.70
7014;DHT22;3547;50.774;12.918;2022-07-23T06:13:39;17.70;99.90
7014;DHT22;3547;50.774;12.918;2022-07-23T06:16:07;17.90;1.00
7014;DHT22;3547;50.774;12.918;2022-07-23T06:21:24;17.90;21.60
7014;DHT22;3547;50.774;12.918;2022-07-23T06:23:50;17.90;1.00
7014;DHT22;3547;50.774;12.918;2022-07-23T06:26:23;17.90;99.90
7014;DHT22;3547;50.774;12.918;2022-07-23T06:32:25;18.40;99.90
7014;DHT22;3547;50.774;12.918;2022-07-23T06:34:57;18.70;41.30
7014;DHT22;3547;50.774;12.918;2022-07-23T06:37:24;18.80;1.00
7014;DHT22;3547;50.774;12.918;2022-07-23T06:39:50;18.90;1.00
7014;DHT22;3547;50.774;12.918;2022-07-23T06:42:24;18.90;99.90
7014;DHT22;3547;50.774;12.918;2022-07-23T06:44:51;18.90;1.00
7014;DHT22;3547;50.774;12.918;2022-07-23T06:47:22;19.00;99.90
7014;DHT22;3547;50.774;12.918;2022-07-23T06:49:49;19.00;99.90
7014;DHT22;3547;50.774;12.918;2022-07-23T06:52:18;19.00;99.90
7014;DHT22;3547;50.774;12.918;2022-07-23T06:55:08;19.00;99.90
7014;DHT22;3547;50.774;12.918;2022-07-23T06:57:37;18.90;99.90
7014;DHT22;3547;50.774;12.918;2022-07-23T07:00:07;18.80;99.90
7014;DHT22;3547;50.774;12.918;2022-07-23T07:02:34;18.90;99.90
7014;DHT22;3547;50.774;12.918;2022-07-23T07:05:00;19.10;99.90
7014;DHT22;3547;50.774;12.918;2022-07-23T07:07:30;19.20;97.60
7014;DHT22;3547;50.774;12.918;2022-07-23T07:09:57;19.40;34.50
7014;DHT22;3547;50.774;12.918;2022-07-23T07:12:26;19.60;43.20
7014;DHT22;3547;50.774;12.918;2022-07-23T07:14:55;19.70;1.00
7014;DHT22;3547;50.774;12.918;2022-07-23T07:17:28;19.80;1.00
7014;DHT22;3547;50.774;12.918;2022-07-23T07:20:06;19.90;1.00
7014;DHT22;3547;50.774;12.918;2022-07-23T07:22:33;19.90;1.00
7014;DHT22;3547;50.774;12.918;2022-07-23T07:25:05;19.80;1.00
7014;DHT22;3547;50.774;12.918;2022-07-23T07:27:31;19.80;1.00
7014;DHT22;3547;50.774;12.918;2022-07-23T07:30:03;19.90;1.00
7014;DHT22;3547;50.774;12.918;2022-07-23T07:32:35;20.20;1.00
7014;DHT22;3547;50.774;12.918;2022-07-23T07:35:05;20.40;1.00
7014;DHT22;3547;50.774;12.918;2022-07-23T07:37:34;20.50;1.00
7014;DHT22;3547;50.774;12.918;2022-07-23T07:40:09;20.70;1.00
7014;DHT22;3547;50.774;12.918;2022-07-23T07:42:50;21.10;1.00
7014;DHT22;3547;50.774;12.918;2022-07-23T07:45:19;21.30;99.90
7014;DHT22;3547;50.774;12.918;2022-07-23T07:47:46;21.30;99.90
7014;DHT22;3547;50.774;12.918;2022-07-23T07:53:37;20.90;1.00
7014;DHT22;3547;50.774;12.918;2022-07-23T07:56:03;21.00;99.90
7014;DHT22;3547;50.774;12.918;2022-07-23T07:58:30;21.20;99.90
7014;DHT22;3547;50.774;12.918;2022-07-23T08:00:56;21.40;99.90
7014;DHT22;3547;50.774;12.918;2022-07-23T08:03:23;21.50;99.90
7014;DHT22;3547;50.774;12.918;2022-07-23T08:05:49;21.60;99.90
7014;DHT22;3547;50.774;12.918;2022-07-23T08:08:15;21.40;99.90
7014;DHT22;3547;50.774;12.918;2022-07-23T08:10:42;21.50;99.90
7014;DHT22;3547;50.774;12.918;2022-07-23T08:13:15;21.30;99.90
7014;DHT22;3547;50.774;12.918;2022-07-23T08:15:42;21.50;99.90
7014;DHT22;3547;50.774;12.918;2022-07-23T08:18:09;21.30;99.90
7014;DHT22;3547;50.774;12.918;2022-07-23T08:20:36;20.90;99.90
7014;DHT22;3547;50.774;12.918;2022-07-23T08:23:07;21.30;99.90
7014;DHT22;3547;50.774;12.918;2022-07-23T08:25:36;21.50;99.90
7014;DHT22;3547;50.774;12.918;2022-07-23T08:28:05;21.70;99.90
7014;DHT22;3547;50.774;12.918;2022-07-23T08:30:34;21.80;99.90
7014;DHT22;3547;50.774;12.918;2022-07-23T08:33:09;22.00;99.90
7014;DHT22;3547;50.774;12.918;2022-07-23T08:35:44;22.10;99.90
7014;DHT22;3547;50.774;12.918;2022-07-23T08:38:16;22.30;99.90
7014;DHT22;3547;50.774;12.918;2022-07-23T08:40:45;22.40;99.90
7014;DHT22;3547;50.774;12.918;2022-07-23T08:43:16;22.50;99.90
7014;DHT22;3547;50.774;12.918;2022-07-23T08:45:44;22.50;99.90
7014;DHT22;3547;50.774;12.918;2022-07-23T08:48:21;22.40;99.90
7014;DHT22;3547;50.774;12.918;2022-07-23T08:50:52;22.30;97.10
7014;DHT22;3547;50.774;12.918;2022-07-23T08:53:21;21.70;99.90
7014;DHT22;3547;50.774;12.918;2022-07-23T08:55:56;21.50;99.90
7014;DHT22;3547;50.774;12.918;2022-07-23T08:58:23;21.30;99.90
7014;DHT22;3547;50.774;12.918;2022-07-23T09:00:50;21.40;99.90
7014;DHT22;3547;50.774;12.918;2022-07-23T09:03:23;21.60;99.90
7014;DHT22;3547;50.774;12.918;2022-07-23T09:05:56;21.50;99.90
7014;DHT22;3547;50.774;12.918;2022-07-23T09:08:35;21.70;99.90
7014;DHT22;3547;50.774;12.918;2022-07-23T09:11:04;21.50;99.90
7014;DHT22;3547;50.774;12.918;2022-07-23T09:13:51;21.80;99.90
7014;DHT22;3547;50.774;12.918;2022-07-23T09:16:24;21.70;99.90
7014;DHT22;3547;50.774;12.918;2022-07-23T09:19:02;21.80;99.90
7014;DHT22;3547;50.774;12.918;2022-07-23T09:21:33;22.20;99.90
7014;DHT22;3547;50.774;12.918;2022-07-23T09:30:14;22.70;99.90
7014;DHT22;3547;50.774;12.918;2022-07-23T09:32:43;23.00;99.40
7014;DHT22;3547;50.774;12.918;2022-07-23T09:35:10;22.70;97.90
7014;DHT22;3547;50.774;12.918;2022-07-23T09:37:36;22.60;92.40
7014;DHT22;3547;50.774;12.918;2022-07-23T09:40:08;22.80;95.90
7014;DHT22;3547;50.774;12.918;2022-07-23T09:42:38;22.80;99.70
7014;DHT22;3547;50.774;12.918;2022-07-23T09:45:10;22.80;91.90
7014;DHT22;3547;50.774;12.918;2022-07-23T09:47:38;22.90;94.30
7014;DHT22;3547;50.774;12.918;2022-07-23T09:50:06;22.70;80.90
7014;DHT22;3547;50.774;12.918;2022-07-23T09:55:10;22.80;90.80
7014;DHT22;3547;50.774;12.918;2022-07-23T09:57:44;22.90;82.60
7014;DHT22;3547;50.774;12.918;2022-07-23T10:00:20;23.00;81.10
7014;DHT22;3547;50.774;12.918;2022-07-23T10:02:47;23.00;71.70
7014;DHT22;3547;50.774;12.918;2022-07-23T10:05:19;23.30;75.60
7014;DHT22;3547;50.774;12.918;2022-07-23T10:07:54;23.20;60.20
7014;DHT22;3547;50.774;12.918;2022-07-23T10:10:21;23.30;69.00
7014;DHT22;3547;50.774;12.918;2022-07-23T10:12:48;23.50;53.00
7014;DHT22;3547;50.774;12.918;2022-07-23T10:15:27;23.80;60.80
7014;DHT22;3547;50.774;12.918;2022-07-23T10:18:11;23.70;42.30
7014;DHT22;3547;50.774;12.918;2022-07-23T10:20:40;23.50;40.50
7014;DHT22;3547;50.774;12.918;2022-07-23T10:23:39;23.50;44.70
7014;DHT22;3547;50.774;12.918;2022-07-23T10:39:33;22.70;45.60
7014;DHT22;3547;50.774;12.918;2022-07-23T10:42:14;22.50;42.00
7014;DHT22;3547;50.774;12.918;2022-07-23T10:44:47;22.50;44.60
7014;DHT22;3547;50.774;12.918;2022-07-23T10:47:31;22.50;45.60
7014;DHT22;3547;50.774;12.918;2022-07-23T10:50:29;22.40;48.60
7014;DHT22;3547;50.774;12.918;2022-07-23T10:55:51;22.10;54.70
7014;DHT22;3547;50.774;12.918;2022-07-23T10:58:25;22.30;55.90
7014;DHT22;3547;50.774;12.918;2022-07-23T11:01:31;22.40;49.30
7014;DHT22;3547;50.774;12.918;2022-07-23T11:03:59;22.60;51.30
7014;DHT22;3547;50.774;12.918;2022-07-23T11:09:38;23.20;44.30
7014;DHT22;3547;50.774;12.918;2022-07-23T11:20:47;22.40;50.60
7014;DHT22;3547;50.774;12.918;2022-07-23T11:23:15;22.10;52.80
7014;DHT22;3547;50.774;12.918;2022-07-23T11:25:47;22.00;75.60
7014;DHT22;3547;50.774;12.918;2022-07-23T11:28:17;21.90;80.90
7014;DHT22;3547;50.774;12.918;2022-07-23T11:30:49;22.20;73.10
7014;DHT22;3547;50.774;12.918;2022-07-23T11:33:27;22.40;75.20
7014;DHT22;3547;50.774;12.918;2022-07-23T11:39:54;23.10;85.70
7014;DHT22;3547;50.774;12.918;2022-07-23T11:42:20;23.10;59.00
7014;DHT22;3547;50.774;12.918;2022-07-23T11:44:53;22.80;56.50
7014;DHT22;3547;50.774;12.918;2022-07-23T11:47:25;22.70;60.10
7014;DHT22;3547;50.774;12.918;2022-07-23T11:49:59;23.00;55.10
7014;DHT22;3547;50.774;12.918;2022-07-23T11:52:27;23.50;55.60
7014;DHT22;3547;50.774;12.918;2022-07-23T11:55:17;23.50;46.70
7014;DHT22;3547;50.774;12.918;2022-07-23T11:57:46;23.90;45.90
7014;DHT22;3547;50.774;12.918;2022-07-23T12:00:27;24.00;41.60
7014;DHT22;3547;50.774;12.918;2022-07-23T12:03:00;24.50;46.30
7014;DHT22;3547;50.774;12.918;2022-07-23T12:05:42;24.50;38.40
7014;DHT22;3547;50.774;12.918;2022-07-23T12:11:05;23.30;44.30
7014;DHT22;3547;50.774;12.918;2022-07-23T12:19:40;22.50;47.90
7014;DHT22;3547;50.774;12.918;2022-07-23T12:25:36;22.70;66.60
7014;DHT22;3547;50.774;12.918;2022-07-23T12:31:14;23.00;51.80
7014;DHT22;3547;50.774;12.918;2022-07-23T12:34:24;23.40;55.70
7014;DHT22;3547;50.774;12.918;2022-07-23T12:36:53;23.50;43.80
7014;DHT22;3547;50.774;12.918;2022-07-23T12:39:57;23.40;45.60
7014;DHT22;3547;50.774;12.918;2022-07-23T12:48:34;23.50;42.70
7014;DHT22;3547;50.774;12.918;2022-07-23T12:51:24;23.60;47.00
7014;DHT22;3547;50.774;12.918;2022-07-23T12:54:17;23.70;47.50
7014;DHT22;3547;50.774;12.918;2022-07-23T12:56:49;24.50;39.90
7014;DHT22;3547;50.774;12.918;2022-07-23T12:59:16;24.20;31.20
7014;DHT22;3547;50.774;12.918;2022-07-23T13:02:02;24.30;34.80
7014;DHT22;3547;50.774;12.918;2022-07-23T13:04:29;24.20;30.00
7014;DHT22;3547;50.774;12.918;2022-07-23T13:07:00;24.20;34.80
7014;DHT22;3547;50.774;12.918;2022-07-23T13:09:30;24.30;37.50
7014;DHT22;3547;50.774;12.918;2022-07-23T13:11:57;24.00;30.00
7014;DHT22;3547;50.774;12.918;2022-07-23T13:14:24;23.90;32.30
7014;DHT22;3547;50.774;12.918;2022-07-23T13:16:52;23.60;34.20
7014;DHT22;3547;50.774;12.918;2022-07-23T13:29:39;22.30;48.30
7014;DHT22;3547;50.774;12.918;2022-07-23T13:32:06;22.10;64.50
7014;DHT22;3547;50.774;12.918;2022-07-23T13:34:35;22.40;62.70
7014;DHT22;3547;50.774;12.918;2022-07-23T13:37:04;22.70;52.30
7014;DHT22;3547;50.774;12.918;2022-07-23T13:39:32;23.00;55.40
7014;DHT22;3547;50.774;12.918;2022-07-23T13:42:01;23.20;44.10
7014;DHT22;3547;50.774;12.918;2022-07-23T13:44:27;23.10;45.40
7014;DHT22;3547;50.774;12.918;2022-07-23T13:46:54;23.30;45.90
7014;DHT22;3547;50.774;12.918;2022-07-23T13:49:20;23.40;45.50
7014;DHT22;3547;50.774;12.918;2022-07-23T13:51:52;23.60;37.40
7014;DHT22;3547;50.774;12.918;2022-07-23T13:54:19;23.50;40.20
7014;DHT22;3547;50.774;12.918;2022-07-23T13:56:45;23.40;35.80
7014;DHT22;3547;50.774;12.918;2022-07-23T13:59:12;23.80;35.10
7014;DHT22;3547;50.774;12.918;2022-07-23T14:01:44;23.90;31.40
7014;DHT22;3547;50.774;12.918;2022-07-23T14:04:16;23.90;28.10
7014;DHT22;3547;50.774;12.918;2022-07-23T14:06:42;23.40;31.30
7014;DHT22;3547;50.774;12.918;2022-07-23T14:09:19;23.00;36.10
7014;DHT22;3547;50.774;12.918;2022-07-23T14:11:56;23.40;36.20
7014;DHT22;3547;50.774;12.918;2022-07-23T14:14:35;23.30;28.70
7014;DHT22;3547;50.774;12.918;2022-07-23T14:17:02;23.40;33.30
7014;DHT22;3547;50.774;12.918;2022-07-23T14:19:29;24.30;29.90
7014;DHT22;3547;50.774;12.918;2022-07-23T14:21:59;24.40;26.30
7014;DHT22;3547;50.774;12.918;2022-07-23T14:24:25;25.50;37.70
7014;DHT22;3547;50.774;12.918;2022-07-23T14:29:35;25.50;7.50
7014;DHT22;3547;50.774;12.918;2022-07-23T14:32:02;24.50;7.90
7014;DHT22;3547;50.774;12.918;2022-07-23T14:34:34;24.80;10.10
7014;DHT22;3547;50.774;12.918;2022-07-23T14:37:04;24.70;7.90
7014;DHT22;3547;50.774;12.918;2022-07-23T14:39:51;24.50;6.20
7014;DHT22;3547;50.774;12.918;2022-07-23T14:42:24;25.40;7.20
7014;DHT22;3547;50.774;12.918;2022-07-23T14:44:52;25.50;1.00
7014;DHT22;3547;50.774;12.918;2022-07-23T14:47:20;24.80;1.30
7014;DHT22;3547;50.774;12.918;2022-07-23T14:49:48;24.50;5.80
7014;DHT22;3547;50.774;12.918;2022-07-23T14:52:18;24.50;7.30
7014;DHT22;3547;50.774;12.918;2022-07-23T14:54:44;24.00;3.80
7014;DHT22;3547;50.774;12.918;2022-07-23T14:57:11;23.60;5.50
7014;DHT22;3547;50.774;12.918;2022-07-23T14:59:38;24.20;11.00
7014;DHT22;3547;50.774;12.918;2022-07-23T15:02:04;24.30;7.20
7014;DHT22;3547;50.774;12.918;2022-07-23T15:04:30;24.20;8.90
7014;DHT22;3547;50.774;12.918;2022-07-23T15:07:03;24.60;7.60
7014;DHT22;3547;50.774;12.918;2022-07-23T15:09:32;24.50;6.30
7014;DHT22;3547;50.774;12.918;2022-07-23T15:12:23;24.20;5.60
7014;DHT22;3547;50.774;12.918;2022-07-23T15:14:49;24.10;4.00
7014;DHT22;3547;50.774;12.918;2022-07-23T15:17:16;24.60;5.50
7014;DHT22;3547;50.774;12.918;2022-07-23T15:19:42;24.40;2.60
7014;DHT22;3547;50.774;12.918;2022-07-23T15:22:08;24.20;3.20
7014;DHT22;3547;50.774;12.918;2022-07-23T15:24:35;24.10;2.70
7014;DHT22;3547;50.774;12.918;2022-07-23T15:27:01;23.50;4.70
7014;DHT22;3547;50.774;12.918;2022-07-23T15:29:27;23.50;7.60
7014;DHT22;3547;50.774;12.918;2022-07-23T15:31:53;23.40;4.40
7014;DHT22;3547;50.774;12.918;2022-07-23T15:37:42;23.10;9.60
7014;DHT22;3547;50.774;12.918;2022-07-23T15:40:12;22.90;9.00
7014;DHT22;3547;50.774;12.918;2022-07-23T15:42:40;22.60;10.20
7014;DHT22;3547;50.774;12.918;2022-07-23T15:45:09;22.50;12.00
7014;DHT22;3547;50.774;12.918;2022-07-23T15:47:41;22.20;17.30
7014;DHT22;3547;50.774;12.918;2022-07-23T15:50:09;22.10;18.10
7014;DHT22;3547;50.774;12.918;2022-07-23T15:52:44;22.30;19.80
7014;DHT22;3547;50.774;12.918;2022-07-23T15:55:19;22.40;19.50
7014;DHT22;3547;50.774;12.918;2022-07-23T15:57:51;23.70;17.00
7014;DHT22;3547;50.774;12.918;2022-07-23T16:00:21;23.70;10.00
7014;DHT22;3547;50.774;12.918;2022-07-23T16:02:49;24.10;7.00
7014;DHT22;3547;50.774;12.918;2022-07-23T16:05:21;25.20;6.40
7014;DHT22;3547;50.774;12.918;2022-07-23T16:07:57;26.00;1.00
7014;DHT22;3547;50.774;12.918;2022-07-23T16:13:15;26.10;1.00
7014;DHT22;3547;50.774;12.918;2022-07-23T16:15:42;26.70;1.00
7014;DHT22;3547;50.774;12.918;2022-07-23T16:18:09;27.10;1.00
7014;DHT22;3547;50.774;12.918;2022-07-23T16:20:37;27.50;1.00
7014;DHT22;3547;50.774;12.918;2022-07-23T16:23:05;28.10;1.00
7014;DHT22;3547;50.774;12.918;2022-07-23T16:25:32;28.60;1.00
7014;DHT22;3547;50.774;12.918;2022-07-23T16:28:01;28.40;1.00
7014;DHT22;3547;50.774;12.918;2022-07-23T16:33:08;28.10;1.00
7014;DHT22;3547;50.774;12.918;2022-07-23T16:38:13;28.30;1.00
7014;DHT22;3547;50.774;12.918;2022-07-23T16:40:51;28.80;1.00
7014;DHT22;3547;50.774;12.918;2022-07-23T16:43:18;28.60;1.00
7014;DHT22;3547;50.774;12.918;2022-07-23T16:45:47;28.50;1.00
7014;DHT22;3547;50.774;12.918;2022-07-23T16:48:17;29.00;1.00
7014;DHT22;3547;50.774;12.918;2022-07-23T16:50:46;28.00;1.00
7014;DHT22;3547;50.774;12.918;2022-07-23T16:53:24;29.00;1.00
7014;DHT22;3547;50.774;12.918;2022-07-23T16:55:52;28.40;1.00
7014;DHT22;3547;50.774;12.918;2022-07-23T16:58:22;29.50;1.00
7014;DHT22;3547;50.774;12.918;2022-07-23T17:00:49;30.00;1.00
7014;DHT22;3547;50.774;12.918;2022-07-23T18:38:19;23.20;1.00
7014;DHT22;3547;50.774;12.918;2022-07-23T18:44:32;22.70;1.00
7014;DHT22;3547;50.774;12.918;2022-07-23T18:47:00;22.60;1.00
7014;DHT22;3547;50.774;12.918;2022-07-23T18:49:27;22.50;1.00
7014;DHT22;3547;50.774;12.918;2022-07-23T18:52:07;22.40;1.00
7014;DHT22;3547;50.774;12.918;2022-07-23T18:54:37;22.30;1.00
7014;DHT22;3547;50.774;12.918;2022-07-23T18:57:06;22.30;1.00
7014;DHT22;3547;50.774;12.918;2022-07-23T18:59:33;22.20;1.00
7014;DHT22;3547;50.774;12.918;2022-07-23T19:02:00;22.10;1.00
7014;DHT22;3547;50.774;12.918;2022-07-23T19:04:31;22.10;1.00
7014;DHT22;3547;50.774;12.918;2022-07-23T19:07:09;21.80;1.00
7014;DHT22;3547;50.774;12.918;2022-07-23T19:09:47;21.60;1.00
7014;DHT22;3547;50.774;12.918;2022-07-23T19:12:42;21.70;1.00
7014;DHT22;3547;50.774;12.918;2022-07-23T19:15:32;21.40;1.00
7014;DHT22;3547;50.774;12.918;2022-07-23T19:18:05;21.40;1.00
7014;DHT22;3547;50.774;12.918;2022-07-23T19:20:57;21.20;1.00
7014;DHT22;3547;50.774;12.918;2022-07-23T19:23:25;21.00;1.00
7014;DHT22;3547;50.774;12.918;2022-07-23T19:25:52;21.00;1.00
7014;DHT22;3547;50.774;12.918;2022-07-23T19:28:29;20.90;1.00
7014;DHT22;3547;50.774;12.918;2022-07-23T19:30:59;20.70;1.00
7014;DHT22;3547;50.774;12.918;2022-07-23T19:33:31;20.60;1.00
7014;DHT22;3547;50.774;12.918;2022-07-23T19:36:03;20.60;1.00